createdAt,value
2023-01-11T00:00:14.581Z,102280.22
2023-01-11T00:02:41.201Z,102276.09
2023-01-11T00:05:09.578Z,102260.53
2023-01-11T00:07:36.198Z,102267.53
2023-01-11T00:10:04.846Z,102263.69
2023-01-11T00:12:31.636Z,102265.16
2023-01-11T00:14:58.226Z,102263.16
2023-01-11T00:17:24.917Z,102241.63
2023-01-11T00:19:51.531Z,102244.34
2023-01-11T00:22:20.167Z,102237.50
2023-01-11T00:24:46.734Z,102234.84
2023-01-11T00:27:13.316Z,102237.22
2023-01-11T00:29:39.922Z,102246.13
2023-01-11T00:32:06.601Z,102242.03
2023-01-11T00:34:33.214Z,102248.34
2023-01-11T00:36:59.769Z,102234.44
2023-01-11T00:39:26.324Z,102226.47
2023-01-11T00:42:11.631Z,102220.81
2023-01-11T00:44:56.807Z,102220.00
2023-01-11T00:47:41.849Z,102213.66
2023-01-11T00:50:08.880Z,102216.78
2023-01-11T00:52:35.472Z,102221.50
2023-01-11T00:55:02.345Z,102215.63
2023-01-11T00:57:28.942Z,102216.97
2023-01-11T00:59:55.688Z,102208.72
2023-01-11T01:02:22.720Z,102201.88
2023-01-11T01:04:49.457Z,102200.63
2023-01-11T01:07:16.100Z,102201.00
2023-01-11T01:09:42.704Z,102191.13
2023-01-11T01:12:09.478Z,102193.81
2023-01-11T01:14:36.736Z,102185.53
2023-01-11T01:17:07.826Z,102187.91
2023-01-11T01:19:35.799Z,102186.81
2023-01-11T01:22:02.533Z,102188.63
2023-01-11T01:24:30.781Z,102190.13
2023-01-11T01:26:58.181Z,102192.00
2023-01-11T01:29:25.053Z,102192.13
2023-01-11T01:31:51.687Z,102183.44
2023-01-11T01:34:18.395Z,102186.88
2023-01-11T01:36:45.044Z,102176.84
2023-01-11T01:39:12.762Z,102173.72
2023-01-11T01:41:39.478Z,102176.44
2023-01-11T01:44:26.019Z,102168.56
2023-01-11T01:46:52.759Z,102167.56
2023-01-11T01:49:19.355Z,102163.78
2023-01-11T01:51:49.714Z,102162.75
2023-01-11T01:54:18.990Z,102161.06
2023-01-11T01:56:48.891Z,102156.75
2023-01-11T01:59:17.357Z,102146.53
2023-01-11T02:01:47.837Z,102147.00
2023-01-11T02:04:14.481Z,102154.28
2023-01-11T02:06:41.487Z,102156.16
2023-01-11T02:09:14.682Z,102149.94
2023-01-11T02:11:43.352Z,102146.25
2023-01-11T02:14:12.498Z,102142.13
2023-01-11T02:16:39.065Z,102133.53
2023-01-11T02:19:08.500Z,102129.41
2023-01-11T02:21:47.375Z,102125.81
2023-01-11T02:24:32.616Z,102123.28
2023-01-11T02:27:11.340Z,102123.88
2023-01-11T02:29:54.202Z,102121.72
2023-01-11T02:32:39.207Z,102120.84
2023-01-11T02:35:12.557Z,102120.75
2023-01-11T02:37:48.189Z,102119.41
2023-01-11T02:40:37.463Z,102104.72
2023-01-11T02:43:46.710Z,102117.84
2023-01-11T02:46:31.969Z,102097.28
2023-01-11T02:49:10.913Z,102096.44
2023-01-11T02:51:43.309Z,102075.78
2023-01-11T02:54:11.382Z,102074.09
2023-01-11T02:56:43.228Z,102074.84
2023-01-11T02:59:12.260Z,102069.97
2023-01-11T03:01:49.296Z,102066.34
2023-01-11T03:04:26.457Z,102067.03
2023-01-11T03:07:11.615Z,102070.03
2023-01-11T03:09:51.134Z,102062.69
2023-01-11T03:12:45.241Z,102064.94
2023-01-11T03:15:14.946Z,102054.91
2023-01-11T03:17:46.470Z,102061.78
2023-01-11T03:20:28.051Z,102054.56
2023-01-11T03:22:57.699Z,102054.66
2023-01-11T03:25:33.609Z,102046.84
2023-01-11T03:28:09.644Z,102050.53
2023-01-11T03:30:54.488Z,102045.91
2023-01-11T03:33:21.126Z,102043.78
2023-01-11T03:35:50.705Z,102042.13
2023-01-11T03:38:49.578Z,102033.13
2023-01-11T03:41:18.715Z,102033.13
2023-01-11T03:43:47.042Z,102027.50
2023-01-11T03:46:16.086Z,102032.66
2023-01-11T03:48:54.203Z,102028.59
2023-01-11T03:51:28.446Z,102025.50
2023-01-11T03:54:01.117Z,102025.59
2023-01-11T03:56:32.555Z,102033.91
2023-01-11T03:58:59.136Z,102026.97
2023-01-11T04:01:26.327Z,102039.53
2023-01-11T04:03:52.986Z,102031.19
2023-01-11T04:06:19.776Z,102030.94
2023-01-11T04:08:46.362Z,102029.19
2023-01-11T04:11:12.966Z,102026.66
2023-01-11T04:13:39.600Z,102027.22
2023-01-11T04:16:06.875Z,102013.44
2023-01-11T04:18:33.612Z,102021.69
2023-01-11T04:21:00.137Z,102017.66
2023-01-11T04:23:26.949Z,102009.63
2023-01-11T04:25:53.602Z,102014.94
2023-01-11T04:28:20.220Z,102012.88
2023-01-11T04:30:46.779Z,102006.31
2023-01-11T04:33:14.549Z,102007.16
2023-01-11T04:35:42.013Z,102002.41
2023-01-11T04:38:08.673Z,101998.50
2023-01-11T04:40:35.270Z,101996.66
2023-01-11T04:43:02.466Z,101995.94
2023-01-11T04:45:29.856Z,101988.09
2023-01-11T04:47:57.311Z,101981.38
2023-01-11T04:50:24.614Z,101975.63
2023-01-11T04:52:51.599Z,101973.38
2023-01-11T04:55:18.676Z,101971.41
2023-01-11T04:57:45.873Z,101968.31
2023-01-11T05:00:13.574Z,101972.78
2023-01-11T05:02:40.400Z,101970.94
2023-01-11T05:05:07.416Z,101967.16
2023-01-11T05:07:34.075Z,101979.88
2023-01-11T05:10:00.671Z,101978.34
2023-01-11T05:12:27.401Z,101987.53
2023-01-11T05:14:54.016Z,101992.19
2023-01-11T05:17:20.623Z,101991.22
2023-01-11T05:19:47.184Z,101986.16
2023-01-11T05:22:13.776Z,101986.91
2023-01-11T05:24:40.450Z,101979.78
2023-01-11T05:27:07.163Z,101985.25
2023-01-11T05:29:33.718Z,101982.03
2023-01-11T05:32:00.456Z,101988.22
2023-01-11T05:34:27.085Z,101987.66
2023-01-11T05:36:53.730Z,101994.94
2023-01-11T05:39:20.406Z,101994.06
2023-01-11T05:41:47.229Z,101992.56
2023-01-11T05:44:32.414Z,101995.44
2023-01-11T05:46:59.305Z,101996.63
2023-01-11T05:49:25.969Z,102004.50
2023-01-11T05:51:52.585Z,102015.09
2023-01-11T05:54:19.184Z,102016.13
2023-01-11T05:56:45.848Z,102013.72
2023-01-11T05:59:12.486Z,102008.53
2023-01-11T06:01:39.118Z,102007.13
2023-01-11T06:04:06.083Z,102007.41
2023-01-11T06:06:32.798Z,102005.50
2023-01-11T06:08:59.336Z,102005.22
2023-01-11T06:11:26.056Z,102014.69
2023-01-11T06:13:52.701Z,102024.06
2023-01-11T06:16:20.110Z,102017.78
2023-01-11T06:18:47.730Z,102008.41
2023-01-11T06:21:14.901Z,102017.09
2023-01-11T06:23:42.874Z,102016.28
2023-01-11T06:26:13.513Z,102016.75
2023-01-11T06:28:40.553Z,102023.38
2023-01-11T06:31:07.503Z,102024.03
2023-01-11T06:33:35.081Z,102025.91
2023-01-11T06:36:06.376Z,102022.47
2023-01-11T06:38:33.014Z,102030.63
2023-01-11T06:41:00.782Z,102021.44
2023-01-11T06:43:28.396Z,102008.94
2023-01-11T06:45:55.417Z,102021.69
2023-01-11T06:48:22.377Z,102015.31
2023-01-11T06:50:50.145Z,102022.78
2023-01-11T06:53:16.933Z,102024.69
2023-01-11T06:55:43.526Z,102033.97
2023-01-11T06:58:10.402Z,102029.47
2023-01-11T07:00:37.243Z,102032.44
2023-01-11T07:03:04.909Z,102027.38
2023-01-11T07:05:35.315Z,102023.22
2023-01-11T07:08:02.256Z,102024.88
2023-01-11T07:10:28.965Z,102023.06
2023-01-11T07:12:55.558Z,102024.25
2023-01-11T07:15:22.180Z,102020.03
2023-01-11T07:17:53.241Z,102031.25
2023-01-11T07:20:19.925Z,102028.59
2023-01-11T07:22:46.541Z,102028.56
2023-01-11T07:25:13.149Z,102019.06
2023-01-11T07:27:39.733Z,102032.06
2023-01-11T07:30:08.425Z,102034.84
2023-01-11T07:32:36.405Z,102041.22
2023-01-11T07:35:03.060Z,102044.69
2023-01-11T07:37:32.722Z,102038.84
2023-01-11T07:39:59.445Z,102044.19
2023-01-11T07:42:44.456Z,102043.69
2023-01-11T07:45:11.190Z,102047.53
2023-01-11T07:47:37.694Z,102050.03
2023-01-11T07:50:04.467Z,102053.50
2023-01-11T07:52:31.056Z,102045.28
2023-01-11T07:55:02.398Z,102048.06
2023-01-11T07:57:30.062Z,102053.59
2023-01-11T07:59:56.718Z,102054.13
2023-01-11T08:02:23.424Z,102065.81
2023-01-11T08:04:50.530Z,102073.06
2023-01-11T08:07:17.121Z,102078.22
2023-01-11T08:09:43.706Z,102079.94
2023-01-11T08:12:28.668Z,102072.66
2023-01-11T08:14:55.279Z,102079.69
2023-01-11T08:17:21.875Z,102079.25
2023-01-11T08:19:48.683Z,102078.91
2023-01-11T08:22:15.487Z,102080.69
2023-01-11T08:24:42.300Z,102080.91
2023-01-11T08:27:09.137Z,102081.56
2023-01-11T08:29:37.123Z,102080.28
2023-01-11T08:32:03.892Z,102077.09
2023-01-11T08:34:32.043Z,102079.03
2023-01-11T08:37:02.236Z,102085.97
2023-01-11T08:39:32.241Z,102084.31
2023-01-11T08:41:59.304Z,102085.19
2023-01-11T08:44:33.800Z,102078.66
2023-01-11T08:47:01.222Z,102077.97
2023-01-11T08:49:28.023Z,102075.41
2023-01-11T08:51:54.797Z,102076.41
2023-01-11T08:54:22.325Z,102079.13
2023-01-11T08:56:49.133Z,102069.94
2023-01-11T08:59:15.933Z,102066.88
2023-01-11T09:01:42.904Z,102077.69
2023-01-11T09:04:23.719Z,102080.22
2023-01-11T09:06:52.157Z,102082.38
2023-01-11T09:09:18.908Z,102083.63
2023-01-11T09:11:54.534Z,102072.44
2023-01-11T09:14:21.642Z,102075.94
2023-01-11T09:16:49.014Z,102076.22
2023-01-11T09:19:15.980Z,102093.00
2023-01-11T09:21:42.920Z,102091.88
2023-01-11T09:24:09.875Z,102100.25
2023-01-11T09:26:37.617Z,102112.19
2023-01-11T09:29:05.152Z,102113.53
2023-01-11T09:31:32.103Z,102106.28
2023-01-11T09:33:59.020Z,102109.91
2023-01-11T09:36:27.935Z,102111.31
2023-01-11T09:38:57.639Z,102115.81
2023-01-11T09:41:31.157Z,102114.69
2023-01-11T09:44:16.649Z,102131.91
2023-01-11T09:46:46.452Z,102127.00
2023-01-11T09:49:23.375Z,102133.44
2023-01-11T09:51:51.563Z,102146.00
2023-01-11T09:54:20.984Z,102141.78
2023-01-11T09:56:53.773Z,102152.72
2023-01-11T09:59:27.176Z,102163.06
2023-01-11T10:02:05.748Z,102170.06
2023-01-11T10:04:48.737Z,102171.47
2023-01-11T10:07:32.121Z,102184.59
2023-01-11T10:18:43.183Z,102172.94
2023-01-11T10:19:33.536Z,102168.75
2023-01-11T10:21:54.726Z,102168.78
2023-01-11T10:24:25.332Z,102166.34
2023-01-11T10:26:56.918Z,102161.03
2023-01-11T10:29:44.903Z,102154.50
2023-01-11T10:32:40.789Z,102152.66
2023-01-11T10:35:34.151Z,102143.78
2023-01-11T10:38:27.742Z,102135.09
2023-01-11T10:41:15.832Z,102132.19
2023-01-11T10:43:44.682Z,102126.06
2023-01-11T10:46:17.051Z,102125.00
2023-01-11T10:48:45.048Z,102123.06
2023-01-11T10:51:29.971Z,102125.00
2023-01-11T10:54:02.824Z,102121.25
2023-01-11T10:56:35.570Z,102123.94
2023-01-11T10:59:17.820Z,102121.81
2023-01-11T11:02:01.156Z,102116.38
2023-01-11T11:04:41.869Z,102098.19
2023-01-11T11:07:08.699Z,102090.06
2023-01-11T11:09:41.665Z,102096.56
2023-01-11T11:12:11.210Z,102105.56
2023-01-11T11:14:43.684Z,102103.25
2023-01-11T11:17:19.699Z,102098.28
2023-01-11T11:19:46.770Z,102087.41
2023-01-11T11:22:13.806Z,102086.56
2023-01-11T11:24:49.885Z,102075.09
2023-01-11T11:27:25.926Z,102079.53
2023-01-11T11:29:54.689Z,102079.06
2023-01-11T11:32:36.937Z,102074.28
2023-01-11T11:35:04.588Z,102077.16
2023-01-11T11:37:35.761Z,102077.00
2023-01-11T11:40:02.988Z,102055.50
2023-01-11T11:42:29.803Z,102055.41
2023-01-11T11:45:14.447Z,102061.06
2023-01-11T11:47:43.669Z,102063.91
2023-01-11T11:50:41.989Z,102052.25
2023-01-11T11:53:06.656Z,102045.06
2023-01-11T11:55:34.335Z,102047.91
2023-01-11T11:58:06.657Z,102045.91
2023-01-11T12:00:35.469Z,102050.41
2023-01-11T12:03:04.832Z,102044.59
2023-01-11T12:05:32.276Z,102039.72
2023-01-11T12:07:59.605Z,102030.03
2023-01-11T12:10:27.401Z,102039.72
2023-01-11T12:12:55.849Z,102035.06
2023-01-11T12:15:23.041Z,102030.19
2023-01-11T12:17:50.297Z,102026.50
2023-01-11T12:20:23.083Z,102031.00
2023-01-11T12:22:50.879Z,102026.84
2023-01-11T12:25:17.605Z,102022.31
2023-01-11T12:27:44.380Z,102021.78
2023-01-11T12:30:19.970Z,102015.28
2023-01-11T12:33:06.226Z,102020.16
2023-01-11T12:35:47.841Z,102016.28
2023-01-11T12:38:32.962Z,102011.44
2023-01-11T12:41:13.789Z,102003.22
2023-01-11T12:43:43.599Z,102001.41
2023-01-11T12:46:22.661Z,101994.50
2023-01-11T12:48:52.319Z,101999.34
2023-01-11T12:51:31.359Z,101999.56
2023-01-11T12:53:58.175Z,101991.97
2023-01-11T12:56:31.110Z,102001.31
2023-01-11T12:59:02.615Z,101998.53
2023-01-11T13:01:41.541Z,102003.72
2023-01-11T13:04:20.643Z,101992.50
2023-01-11T13:06:59.474Z,102001.09
2023-01-11T13:09:37.946Z,101992.16
2023-01-11T13:12:04.810Z,102000.19
2023-01-11T13:15:04.019Z,101987.69
2023-01-11T13:17:40.889Z,101996.38
2023-01-11T13:20:26.482Z,101992.19
2023-01-11T13:23:15.313Z,101986.53
2023-01-11T13:25:44.831Z,101981.00
2023-01-11T13:28:34.174Z,101988.34
2023-01-11T13:31:03.866Z,101984.34
2023-01-11T13:33:32.720Z,101982.00
2023-01-11T13:36:22.804Z,101979.66
2023-01-11T13:38:50.578Z,101973.63
2023-01-11T13:41:22.272Z,101982.16
2023-01-11T13:44:04.341Z,101984.34
2023-01-11T13:46:46.934Z,101981.34
2023-01-11T13:49:18.464Z,101970.44
2023-01-11T13:51:50.443Z,101974.94
2023-01-11T13:54:20.749Z,101975.16
2023-01-11T13:56:52.715Z,101983.97
2023-01-11T13:59:27.708Z,101979.13
2023-01-11T14:02:12.671Z,101983.66
2023-01-11T14:04:42.521Z,101978.50
2023-01-11T14:07:32.122Z,101984.28
2023-01-11T14:10:14.101Z,101984.47
2023-01-11T14:12:40.971Z,101991.47
2023-01-11T14:15:07.644Z,101991.97
2023-01-11T14:17:49.809Z,101994.94
2023-01-11T14:20:40.068Z,101994.09
2023-01-11T14:23:28.571Z,102007.69
2023-01-11T14:25:55.361Z,102006.66
2023-01-11T14:28:30.904Z,102001.97
2023-01-11T14:31:00.600Z,102003.69
2023-01-11T14:33:33.320Z,102018.22
2023-01-11T14:36:28.892Z,102017.16
2023-01-11T14:39:14.235Z,102012.69
2023-01-11T14:42:02.092Z,102015.00
2023-01-11T14:44:28.880Z,102019.72
2023-01-11T14:47:14.217Z,102027.38
2023-01-11T14:49:53.609Z,102036.41
2023-01-11T14:52:38.981Z,102036.41
2023-01-11T14:55:17.707Z,102039.44
2023-01-11T14:57:59.622Z,102049.09
2023-01-11T15:00:26.573Z,102052.78
2023-01-11T15:03:13.244Z,102059.75
2023-01-11T15:05:47.341Z,102054.25
2023-01-11T15:08:14.115Z,102044.91
2023-01-11T15:10:47.077Z,102045.75
2023-01-11T15:13:17.549Z,102048.25
2023-01-11T15:16:03.208Z,102044.25
2023-01-11T15:18:30.367Z,102047.94
2023-01-11T15:21:02.134Z,102053.00
2023-01-11T15:23:34.222Z,102060.53
2023-01-11T15:26:02.515Z,102071.25
2023-01-11T15:28:35.364Z,102074.28
2023-01-11T15:31:05.662Z,102073.31
2023-01-11T15:33:45.994Z,102077.31
2023-01-11T15:36:13.158Z,102083.13
2023-01-11T15:38:52.754Z,102076.78
2023-01-11T15:41:44.793Z,102072.13
2023-01-11T15:44:14.383Z,102065.41
2023-01-11T15:47:01.700Z,102065.22
2023-01-11T15:49:34.828Z,102063.91
2023-01-11T15:52:07.715Z,102069.25
2023-01-11T15:54:53.046Z,102069.72
2023-01-11T15:57:22.664Z,102070.06
2023-01-11T15:59:52.414Z,102072.38
2023-01-11T16:02:25.522Z,102072.75
2023-01-11T16:04:52.451Z,102080.25
2023-01-11T16:07:19.157Z,102076.06
2023-01-11T16:09:55.002Z,102078.63
2023-01-11T16:12:54.203Z,102075.25
2023-01-11T16:15:27.485Z,102086.16
2023-01-11T16:17:54.700Z,102093.38
2023-01-11T16:20:21.417Z,102108.25
2023-01-11T16:22:53.584Z,102100.38
2023-01-11T16:25:21.477Z,102093.53
2023-01-11T16:27:52.517Z,102115.44
2023-01-11T16:30:19.961Z,102129.16
2023-01-11T16:32:46.714Z,102129.50
2023-01-11T16:35:18.236Z,102124.31
2023-01-11T16:37:46.364Z,102136.19
2023-01-11T16:40:15.839Z,102147.38
2023-01-11T16:42:46.575Z,102146.72
2023-01-11T16:45:15.052Z,102141.53
2023-01-11T16:47:41.813Z,102147.69
2023-01-11T16:50:14.762Z,102154.22
2023-01-11T16:52:48.529Z,102170.09
2023-01-11T16:55:36.846Z,102163.22
2023-01-11T16:58:08.042Z,102176.25
2023-01-11T17:00:38.159Z,102178.41
2023-01-11T17:03:17.227Z,102180.63
2023-01-11T17:05:53.341Z,102190.78
2023-01-11T17:08:39.635Z,102207.53
2023-01-11T17:11:26.772Z,102204.34
2023-01-11T17:13:53.636Z,102185.44
2023-01-11T17:16:32.215Z,102181.63
2023-01-11T17:19:01.623Z,102196.13
2023-01-11T17:21:29.386Z,102194.31
2023-01-11T17:24:00.519Z,102193.63
2023-01-11T17:26:47.950Z,102195.81
2023-01-11T17:29:22.018Z,102201.69
2023-01-11T17:31:49.080Z,102209.88
2023-01-11T17:34:20.680Z,102209.00
2023-01-11T17:36:48.003Z,102210.28
2023-01-11T17:39:32.517Z,102209.44
2023-01-11T17:42:19.673Z,102221.94
2023-01-11T17:45:06.076Z,102213.50
2023-01-11T17:47:33.868Z,102217.03
2023-01-11T17:50:01.970Z,102223.00
2023-01-11T17:52:38.976Z,102229.72
2023-01-11T17:55:19.111Z,102227.13
2023-01-11T17:58:05.809Z,102220.41
2023-01-11T18:00:32.546Z,102228.88
2023-01-11T18:03:10.326Z,102230.78
2023-01-11T18:05:37.287Z,102230.84
2023-01-11T18:08:09.678Z,102227.53
2023-01-11T18:10:38.726Z,102231.97
2023-01-11T18:13:05.580Z,102236.03
2023-01-11T18:15:33.713Z,102236.38
2023-01-11T18:18:01.151Z,102236.97
2023-01-11T18:20:32.843Z,102248.97
2023-01-11T18:23:05.191Z,102257.03
2023-01-11T18:25:35.122Z,102262.84
2023-01-11T18:28:11.381Z,102271.38
2023-01-11T18:30:39.651Z,102266.72
2023-01-11T18:33:11.643Z,102264.38
2023-01-11T18:35:45.207Z,102260.16
2023-01-11T18:38:22.678Z,102257.56
2023-01-11T18:40:50.363Z,102265.34
2023-01-11T18:43:19.895Z,102273.69
2023-01-11T18:45:46.866Z,102272.09
2023-01-11T18:48:14.439Z,102270.06
2023-01-11T18:50:42.815Z,102269.81
2023-01-11T18:53:11.198Z,102272.31
2023-01-11T18:55:38.288Z,102282.00
2023-01-11T18:58:04.986Z,102294.22
2023-01-11T19:00:31.781Z,102297.19
2023-01-11T19:02:58.776Z,102319.06
2023-01-11T19:05:25.610Z,102316.25
2023-01-11T19:07:52.402Z,102311.53
2023-01-11T19:10:20.878Z,102316.50
2023-01-11T19:12:48.481Z,102321.59
2023-01-11T19:15:15.490Z,102314.88
2023-01-11T19:17:42.665Z,102325.13
2023-01-11T19:20:11.139Z,102329.09
2023-01-11T19:22:38.009Z,102335.97
2023-01-11T19:25:05.278Z,102325.50
2023-01-11T19:27:32.026Z,102321.69
2023-01-11T19:29:59.156Z,102332.44
2023-01-11T19:32:25.904Z,102338.69
2023-01-11T19:34:53.410Z,102344.50
2023-01-11T19:37:20.932Z,102341.06
2023-01-11T19:39:47.830Z,102347.47
2023-01-11T19:42:14.597Z,102348.38
2023-01-11T19:44:41.442Z,102355.94
2023-01-11T19:47:11.552Z,102353.28
2023-01-11T19:49:40.018Z,102354.41
2023-01-11T19:52:13.001Z,102359.06
2023-01-11T19:54:43.280Z,102360.19
2023-01-11T19:57:14.579Z,102360.25
2023-01-11T19:59:41.924Z,102360.63
2023-01-11T20:02:09.992Z,102363.91
2023-01-11T20:04:37.409Z,102356.50
2023-01-11T20:07:04.518Z,102361.91
2023-01-11T20:09:31.331Z,102370.75
2023-01-11T20:11:58.984Z,102373.88
2023-01-11T20:14:25.851Z,102383.69
2023-01-11T20:16:52.610Z,102391.56
2023-01-11T20:19:19.766Z,102403.72
2023-01-11T20:21:46.538Z,102405.28
2023-01-11T20:24:14.028Z,102424.13
2023-01-11T20:26:41.069Z,102408.25
2023-01-11T20:29:08.051Z,102408.25
2023-01-11T20:31:35.739Z,102419.91
2023-01-11T20:34:13.777Z,102428.75
2023-01-11T20:36:40.814Z,102434.50
2023-01-11T20:39:08.431Z,102424.31
2023-01-11T20:41:47.909Z,102425.00
2023-01-11T20:44:19.397Z,102421.22
2023-01-11T20:46:48.192Z,102427.97
2023-01-11T20:49:15.264Z,102424.03
2023-01-11T20:51:43.043Z,102420.69
2023-01-11T20:54:10.428Z,102422.50
2023-01-11T20:56:38.626Z,102415.88
2023-01-11T20:59:06.860Z,102423.34
2023-01-11T21:01:34.600Z,102427.75
2023-01-11T21:04:02.779Z,102427.34
2023-01-11T21:06:30.422Z,102414.88
2023-01-11T21:08:57.998Z,102424.69
2023-01-11T21:11:24.947Z,102427.75
2023-01-11T21:13:53.170Z,102432.25
2023-01-11T21:16:20.837Z,102431.25
2023-01-11T21:18:47.613Z,102421.75
2023-01-11T21:21:16.097Z,102420.19
2023-01-11T21:23:42.894Z,102412.63
2023-01-11T21:26:13.061Z,102416.28
2023-01-11T21:28:40.767Z,102430.72
2023-01-11T21:31:08.374Z,102428.75
2023-01-11T21:33:37.444Z,102430.88
2023-01-11T21:36:08.448Z,102436.19
2023-01-11T21:38:35.633Z,102434.50
2023-01-11T21:41:10.037Z,102427.91
2023-01-11T21:43:36.960Z,102426.09
2023-01-11T21:46:05.138Z,102426.22
2023-01-11T21:48:32.347Z,102428.19
2023-01-11T21:50:59.648Z,102426.09
2023-01-11T21:53:30.154Z,102431.69
2023-01-11T21:55:57.430Z,102427.91
2023-01-11T21:58:24.173Z,102439.41
2023-01-11T22:00:50.915Z,102435.06
2023-01-11T22:03:17.663Z,102420.91
2023-01-11T22:05:44.457Z,102429.59
2023-01-11T22:08:11.223Z,102431.41
2023-01-11T22:10:39.490Z,102442.63
2023-01-11T22:13:06.176Z,102438.41
2023-01-11T22:15:32.963Z,102442.63
2023-01-11T22:17:59.754Z,102447.50
2023-01-11T22:20:26.487Z,102440.63
2023-01-11T22:22:54.368Z,102445.25
2023-01-11T22:25:21.167Z,102445.91
2023-01-11T22:27:47.894Z,102449.41
2023-01-11T22:30:14.896Z,102444.59
2023-01-11T22:32:43.483Z,102455.25
2023-01-11T22:35:10.721Z,102456.50
2023-01-11T22:37:37.512Z,102452.91
2023-01-11T22:40:04.578Z,102453.47
2023-01-11T22:42:31.420Z,102460.91
2023-01-11T22:44:58.780Z,102459.31
2023-01-11T22:47:25.544Z,102450.06
2023-01-11T22:49:54.398Z,102454.13
2023-01-11T22:52:21.663Z,102454.53
2023-01-11T22:54:48.896Z,102461.88
2023-01-11T22:57:15.742Z,102466.22
2023-01-11T22:59:42.675Z,102465.00
2023-01-11T23:02:09.394Z,102459.28
2023-01-11T23:04:36.189Z,102451.72
2023-01-11T23:07:03.013Z,102445.34
2023-01-11T23:09:29.858Z,102444.25
2023-01-11T23:12:15.044Z,102441.19
2023-01-11T23:14:41.921Z,102445.94
2023-01-11T23:17:08.709Z,102440.31
2023-01-11T23:19:37.010Z,102441.22
2023-01-11T23:22:04.108Z,102440.69
2023-01-11T23:24:31.253Z,102438.84
2023-01-11T23:26:58.255Z,102446.28
2023-01-11T23:29:25.155Z,102447.22
2023-01-11T23:31:52.011Z,102436.47
2023-01-11T23:34:18.975Z,102427.09
2023-01-11T23:36:45.788Z,102419.38
2023-01-11T23:39:14.063Z,102421.03
2023-01-11T23:41:59.732Z,102429.59
2023-01-11T23:44:26.570Z,102433.03
2023-01-11T23:47:12.017Z,102436.13
2023-01-11T23:49:38.897Z,102427.31
2023-01-11T23:52:06.078Z,102427.28
2023-01-11T23:54:33.440Z,102426.81
2023-01-11T23:57:00.859Z,102429.63
2023-01-11T23:59:27.780Z,102447.50
